• Join FlightAware (Why Join?)
  • Login
  • US Flag 
08:31PM EDT


 

Airport Tracker/Info


-or-


 

Live Flight TrackerFlight Track Log ✈ JBU1580 ✈ 08-Oct-2013 ✈ KFLL - KDCA

Flight Track Log - Related Links

Times and Time Zones

All times are in EDT time to prevent confusion due to time zone crossing. See the JBU1580 flight status page for this flight to view local times or setup timezone preferences in your user account.

Time Position Orientation Groundspeed Altitude Reporting Facility
EDT Latitude Longitude Course Direction KTS MPH feet Rate Location/Type
01:09PM 26.0742 -80.1736 346° North 144 166 500  Level Miami Center
01:09PM 26.0800 -80.1878 295° West 148 170 900 1,860 Climbing Miami Center
01:09PM 26.0739 -80.1875 178° South 150 173 1,100 1,680 Climbing Miami Center
01:10PM 26.0786 -80.2478 275° West 204 235 2,600 1,920 Climbing Miami Center
01:10PM 26.0767 -80.2478 180° South 220 253 3,100 2,100 Climbing Miami Center
01:11PM 26.1344 -80.2725 339° North 233 268 4,700 1,020 Climbing Miami Center
01:12PM 26.3919 -80.3531 342° North  Level FlightAware Approximate
01:12PM 26.2092 -80.2978 343° North 252 290 5,200  Level Miami Center
01:13PM 26.5165 -80.3984 342° North  Level FlightAware Approximate
01:13PM 26.2878 -80.3256 342° North 281 323 8,700  Level Miami Center
01:14PM 26.6425 -80.4383 346° North  Level FlightAware Approximate
01:14PM 26.3603 -80.3486 344° North 299 344 10,900  Level Miami Center
01:15PM 26.4639 -80.3817 344° North 336 387 13,000 2,100 Climbing Miami Center
01:16PM 26.5531 -80.4100 344° North 359 413 15,200 2,160 Climbing Miami Center
01:17PM 26.6650 -80.4458 344° North 371 427 17,400 1,860 Climbing Miami Center
01:18PM 26.7603 -80.4767 344° North 378 435 19,000 1,800 Climbing Miami Center
01:19PM 26.8658 -80.5103 344° North 383 441 21,100 1,740 Climbing Miami Center
01:20PM 26.9778 -80.5464 344° North 396 456 22,500 1,320 Climbing Miami Center
01:21PM 27.0894 -80.5850 343° North 407 468 23,800 1,200 Climbing Miami Center
01:22PM 27.2097 -80.6214 345° North 420 483 25,000 1,140 Climbing Miami Center
01:23PM 27.3297 -80.6606 344° North 433 498 26,100 1,260 Climbing Miami Center
01:24PM 27.4561 -80.7044 343° North 450 518 27,600 1,440 Climbing Miami Center
01:25PM 27.5803 -80.7436 344° North 455 524 29,000 1,260 Climbing Miami Center
01:26PM 27.7064 -80.7856 344° North 460 529 30,200 1,200 Climbing Miami Center
01:27PM 27.8306 -80.8250 344° North 460 529 31,500 1,200 Climbing Miami Center
01:28PM 27.9567 -80.8669 344° North 460 529 32,700 1,380 Climbing Miami Center
01:29PM 28.0786 -80.9067 344° North 455 524 34,300 1,440 Climbing Miami Center
01:30PM 28.1967 -80.9439 344° North 450 518 35,600 1,020 Climbing Miami Center
01:31PM 28.3122 -80.9833 343° North 445 512 36,400 660 Climbing Miami Center
01:32PM 28.4300 -81.0231 343° North 439 505 37,000 300 Climbing Miami Center
01:33PM 28.5500 -81.0631 344° North 434 499 37,000  Level Miami Center
01:34PM 28.6844 -81.1106 343° North 446 513 37,000  Level Jacksonville Center
01:35PM 28.8058 -81.1417 347° North 467 537 37,000  Level Jacksonville Center
01:36PM 28.9336 -81.1725 348° North 467 537 37,000  Level Jacksonville Center
01:37PM 29.0614 -81.2036 348° North 467 537 37,000  Level Jacksonville Center
01:38PM 29.1869 -81.2347 348° North 472 543 37,000  Level Jacksonville Center
01:39PM 29.3147 -81.2658 348° North 467 537 37,000  Level Jacksonville Center
01:40PM 29.4422 -81.2925 350° North 472 543 37,000  Level Jacksonville Center
01:41PM 29.5553 -81.3217 347° North 467 537 37,000  Level Jacksonville Center
01:42PM 29.6892 -81.3339 355° North 472 543 37,000  Level Jacksonville Center
01:43PM 29.8269 -81.3267 North 472 543 37,000  Level Jacksonville Center
01:44PM 29.9625 -81.3175 North 478 550 37,000  Level Jacksonville Center
01:45PM 30.0958 -81.3106 North 478 550 37,000  Level Jacksonville Center
01:46PM 30.2461 -81.3008 North 478 550 37,000  Level Jacksonville Center
01:47PM 30.3839 -81.2936 North 483 556 37,000  Level Jacksonville Center
01:48PM 30.5236 -81.2864 North 489 563 37,000  Level Jacksonville Center
01:49PM 30.6633 -81.2794 North 494 568 37,000  Level Jacksonville Center
01:50PM 30.8053 -81.2722 North 494 568 37,000  Level Jacksonville Center
01:51PM 30.9472 -81.2647 North 494 568 37,000  Level Jacksonville Center
01:52PM 31.0842 -81.2042 21° North 500 575 37,000  Level Jacksonville Center
01:53PM 31.2189 -81.1264 26° Northeast 521 600 37,000  Level Jacksonville Center
01:54PM 31.3472 -81.0461 28° Northeast 519 597 37,000  Level Jacksonville Center
01:55PM 31.4797 -80.9681 27° Northeast 524 603 37,000  Level Jacksonville Center
01:56PM 31.5975 -80.8975 27° Northeast 524 603 37,000  Level Jacksonville Center
01:57PM 31.7444 -80.8136 26° Northeast 531 611 37,000  Level Jacksonville Center
01:58PM 31.8644 -80.7400 28° Northeast 525 604 37,000  Level Jacksonville Center
01:59PM 32.0111 -80.6533 27° Northeast 531 611 37,000  Level Jacksonville Center
02:00PM 32.1433 -80.5764 26° Northeast 525 604 37,000  Level Jacksonville Center
02:01PM 32.2631 -80.5047 27° Northeast 525 604 37,000  Level Jacksonville Center
02:02PM 32.3972 -80.4222 27° Northeast 525 604 37,000  Level Jacksonville Center
02:03PM 32.5292 -80.3425 27° Northeast 525 604 37,000  Level Jacksonville Center
02:04PM 32.6611 -80.2597 28° Northeast 525 604 37,100 480 Climbing Jacksonville Center
02:05PM 32.7950 -80.1792 27° Northeast 525 604 38,000 660 Climbing Jacksonville Center
02:06PM 32.9267 -80.0936 29° Northeast 525 604 38,500 480 Climbing Jacksonville Center
02:07PM 33.0606 -80.0100 28° Northeast 532 612 39,000 240 Climbing Jacksonville Center
02:08PM 33.1944 -79.9339 25° Northeast 532 612 39,000  Level Jacksonville Center
02:09PM 33.3406 -79.8444 27° Northeast 532 612 39,000  Level Jacksonville Center
02:10PM 33.4719 -79.7628 27° Northeast 527 606 39,000  Level Jacksonville Center
02:11PM 33.5950 -79.6686 33° Northeast 527 606 39,000  Level Jacksonville Center
02:12PM 33.7175 -79.5717 33° Northeast 527 606 39,000  Level Jacksonville Center
02:13PM 33.8444 -79.4744 32° Northeast 532 612 39,000  Level Jacksonville Center
02:14PM 33.9617 -79.4147 23° Northeast 522 601 39,000  Level Jacksonville Center
02:15PM 34.0975 -79.3517 21° North 510 587 39,000  Level Jacksonville Center
02:16PM 34.2333 -79.2833 23° Northeast 516 594 39,000  Level Jacksonville Center
02:18PM 34.3911 -79.1908 26° Northeast 516 594 39,000  Level Washington Center
02:19PM 34.5394 -79.1142 23° Northeast 516 594 39,000  Level Washington Center
02:20PM 34.6564 -79.0383 28° Northeast 465 535 39,000  Level Washington Center
02:21PM 34.7878 -78.9631 25° Northeast 495 570 39,000  Level Washington Center
02:22PM 34.9192 -78.8875 25° Northeast 512 589 39,000  Level Washington Center
02:23PM 35.0550 -78.8067 26° Northeast 518 596 39,000  Level Washington Center
02:24PM 35.1844 -78.7306 26° Northeast 512 589 39,000  Level Washington Center
02:25PM 35.3114 -78.6567 25° Northeast 505 581 39,000 -360 Level Washington Center
02:26PM 35.4597 -78.5653 27° Northeast 519 597 38,300 -840 Descending Washington Center
02:27PM 35.5911 -78.4886 25° Northeast 519 597 37,400 -1,320 Descending Washington Center
02:28PM 35.7244 -78.4114 25° Northeast 514 592 35,700 -2,160 Descending Washington Center
02:29PM 35.8514 -78.3367 26° Northeast 514 592 33,100 -2,700 Descending Washington Center
02:30PM 35.9783 -78.2589 26° Northeast 509 586 30,500 -2,700 Descending Washington Center
02:31PM 36.1094 -78.1808 26° Northeast 509 586 27,900 -1,740 Descending Washington Center
02:32PM 36.2278 -78.1078 26° Northeast 503 579 27,000 -480 Descending Washington Center
02:33PM 36.3397 -78.0417 25° Northeast 468 539 27,000  Level Washington Center
02:34PM 36.4539 -77.9703 27° Northeast 451 519 27,000 -60 Level Washington Center
02:35PM 36.5719 -77.8989 26° Northeast 457 526 26,900 -480 Descending Washington Center
02:36PM 36.6961 -77.8431 20° North 457 526 26,100 -840 Descending Washington Center
02:37PM 36.8056 -77.7994 18° North 463 533 25,300 -840 Descending Washington Center
02:38PM 36.9231 -77.7508 18° North 450 518 24,500 -660 Descending Washington Center
02:39PM 37.0347 -77.6994 20° North 436 502 24,000 -660 Descending Washington Center
02:40PM 37.1461 -77.6528 18° North 423 487 23,300 -900 Descending Washington Center
02:41PM 37.2533 -77.6061 19° North 418 481 22,300 -660 Descending Washington Center
02:42PM 37.3561 -77.5619 19° North 406 467 22,000 -660 Descending Washington Center
02:43PM 37.4717 -77.5125 19° North 399 459 21,100 -1,200 Descending Washington Center
02:44PM 37.5747 -77.4681 19° North 394 453 19,600 -1,440 Descending Washington Center
02:45PM 37.6753 -77.4258 18° North 389 448 18,300 -1,320 Descending Washington Center
02:46PM 37.7742 -77.3808 20° North 389 448 17,000 -1,320 Descending Washington Center
02:47PM 37.8686 -77.3411 18° North 378 435 15,700 -1,320 Descending Washington Center
02:48PM 37.9650 -77.2986 19° North 367 422 14,400 -1,200 Descending Washington Center
02:49PM 38.0489 -77.2661 17° North 357 411 13,300 -1,200 Descending Washington Center
02:50PM 38.1369 -77.2286 19° North 344 396 12,100 -1,380 Descending Washington Center
02:51PM 38.2189 -77.1906 20° North 322 371 10,600 -1,080 Descending Washington Center
02:52PM 38.3008 -77.1528 20° North 302 348 10,000 -840 Descending Washington Center
02:53PM 38.3758 -77.1411 North 291 335 9,000 -1,200 Descending Washington Center
02:54PM 38.4533 -77.1242 10° North 286 329 7,600 -1,380 Descending Washington Center
02:55PM 38.5286 -77.1097 North 276 318 6,300 -1,440 Descending Washington Center
02:56PM 38.5975 -77.0900 13° North 265 305 4,800 -1,860 Descending Washington Center
02:56PM 38.6500 -77.0667 19° North 250 288 3,200 -1,320 Descending Potomac TRACON
02:57PM 38.7000 -77.0333 27° Northeast 200 230 2,600 -780 Descending Potomac TRACON
02:58PM 38.7500 -77.0333 360° North 153 176 1,700 -900 Descending Potomac TRACON
02:59PM 38.8000 -77.0333 360° North 129 148 900 -720 Descending Potomac TRACON
03:00PM 38.8333 -77.0333 360° North 128 147 300 -600 Descending Potomac TRACON